<?xml version="1.0" encoding="UTF-8" standalone="no" ?>
<gpx xmlns="http://www.topografix.com/GPX/1/1" xmlns:xsi="http://www.w3.org/2001/XMLSchema-instance" xsi:schemaLocation="http://www.topografix.com/GPX/1/1 http://www.topografix.com/GPX/1/1/gpx.xsd" version="1.1" creator="VisuGPX - https://www.visugpx.com">
  <metadata>
    <name>Labyrinthev2.1</name>
    <desc><![CDATA[Labyrinthev2.1]]></desc>
  </metadata>
  <trk>
    <name><![CDATA[2015-08-20 20:32]]></name>
    <desc><![CDATA[<h1>OruxMaps</h1><br /><hr align="center" width="480" style="height: 2px; width: 517px"/><h2>Nom: 2015-08-20 20:32</h2><br /><p>Temps de départ: 08/20/2015 20:34</p><p>Temps d'arrivée: 08/20/2015 21:10</p><p>Distance: 7,6km (00:36)</p><p>Temps déplacement: 00:34</p><p>Vitesse moyenne: 12,5km/h</p><p>Vitesse moyenne: 13,3km/h</p><p>Vitess Max.: 26km/h</p><p>Altitude minimale: -6m</p><p>Altitude maximale: 40m</p><p>Vitesse d'élévation: 579,4m/h</p><p>Vitesse de descente: -522,7m/h</p><p>Gain Altitude: 67m</p><p>Perte Altitude: -42m</p><p>Temps d'élévation: 00:07</p><p>Temps de descente: 00:04</p><hr align="center" width="480" style="height: 2px; width: 517px"/>]]></desc>
    <trkseg>
      <trkpt lat="47.16777" lon="-1.62657">
        <ele>-6.7</ele>
        <time>2015-08-20T18:34:21Z</time>
      </trkpt>
      <trkpt lat="47.17248" lon="-1.63041">
        <ele>32.9</ele>
        <time>2015-08-20T18:38:51Z</time>
      </trkpt>
      <trkpt lat="47.17247" lon="-1.63068">
        <ele>31.2</ele>
        <time>2015-08-20T18:38:57Z</time>
      </trkpt>
      <trkpt lat="47.1723" lon="-1.63087">
        <ele>31.4</ele>
        <time>2015-08-20T18:39:03Z</time>
      </trkpt>
      <trkpt lat="47.17214" lon="-1.63103">
        <ele>32.3</ele>
        <time>2015-08-20T18:39:09Z</time>
      </trkpt>
      <trkpt lat="47.17198" lon="-1.63118">
        <ele>31.4</ele>
        <time>2015-08-20T18:39:15Z</time>
      </trkpt>
      <trkpt lat="47.1718" lon="-1.63132">
        <ele>32.5</ele>
        <time>2015-08-20T18:39:22Z</time>
      </trkpt>
      <trkpt lat="47.17164" lon="-1.63152">
        <ele>33.8</ele>
        <time>2015-08-20T18:39:29Z</time>
      </trkpt>
      <trkpt lat="47.1715" lon="-1.6317">
        <ele>37</ele>
        <time>2015-08-20T18:39:34Z</time>
      </trkpt>
      <trkpt lat="47.17135" lon="-1.63187">
        <ele>40.5</ele>
        <time>2015-08-20T18:39:41Z</time>
      </trkpt>
      <trkpt lat="47.17113" lon="-1.63197">
        <ele>38.1</ele>
        <time>2015-08-20T18:39:47Z</time>
      </trkpt>
      <trkpt lat="47.17091" lon="-1.63195">
        <ele>27.6</ele>
        <time>2015-08-20T18:39:53Z</time>
      </trkpt>
      <trkpt lat="47.17071" lon="-1.63201">
        <ele>23.2</ele>
        <time>2015-08-20T18:40:00Z</time>
      </trkpt>
      <trkpt lat="47.17053" lon="-1.63216">
        <ele>20.7</ele>
        <time>2015-08-20T18:40:06Z</time>
      </trkpt>
      <trkpt lat="47.17034" lon="-1.63224">
        <ele>16.7</ele>
        <time>2015-08-20T18:40:12Z</time>
      </trkpt>
      <trkpt lat="47.17016" lon="-1.6323">
        <ele>16.2</ele>
        <time>2015-08-20T18:40:18Z</time>
      </trkpt>
      <trkpt lat="47.16998" lon="-1.63241">
        <ele>17.4</ele>
        <time>2015-08-20T18:40:25Z</time>
      </trkpt>
      <trkpt lat="47.1698" lon="-1.6325">
        <ele>16.1</ele>
        <time>2015-08-20T18:40:30Z</time>
      </trkpt>
      <trkpt lat="47.16968" lon="-1.63273">
        <ele>14.4</ele>
        <time>2015-08-20T18:40:35Z</time>
      </trkpt>
      <trkpt lat="47.16956" lon="-1.633">
        <ele>12.4</ele>
        <time>2015-08-20T18:40:41Z</time>
      </trkpt>
      <trkpt lat="47.16943" lon="-1.63322">
        <ele>12.1</ele>
        <time>2015-08-20T18:40:46Z</time>
      </trkpt>
      <trkpt lat="47.16928" lon="-1.63339">
        <ele>12.5</ele>
        <time>2015-08-20T18:40:51Z</time>
      </trkpt>
      <trkpt lat="47.16913" lon="-1.63359">
        <ele>13.8</ele>
        <time>2015-08-20T18:40:56Z</time>
      </trkpt>
      <trkpt lat="47.169" lon="-1.63377">
        <ele>13.6</ele>
        <time>2015-08-20T18:41:01Z</time>
      </trkpt>
      <trkpt lat="47.1689" lon="-1.634">
        <ele>12.4</ele>
        <time>2015-08-20T18:41:07Z</time>
      </trkpt>
      <trkpt lat="47.16876" lon="-1.63422">
        <ele>12.5</ele>
        <time>2015-08-20T18:41:14Z</time>
      </trkpt>
      <trkpt lat="47.16863" lon="-1.63445">
        <ele>12.8</ele>
        <time>2015-08-20T18:41:21Z</time>
      </trkpt>
      <trkpt lat="47.16853" lon="-1.63468">
        <ele>11.5</ele>
        <time>2015-08-20T18:41:27Z</time>
      </trkpt>
      <trkpt lat="47.16843" lon="-1.63492">
        <ele>11.2</ele>
        <time>2015-08-20T18:41:32Z</time>
      </trkpt>
      <trkpt lat="47.16833" lon="-1.63514">
        <ele>14</ele>
        <time>2015-08-20T18:41:37Z</time>
      </trkpt>
      <trkpt lat="47.16818" lon="-1.63532">
        <ele>15.9</ele>
        <time>2015-08-20T18:41:42Z</time>
      </trkpt>
      <trkpt lat="47.16804" lon="-1.63551">
        <ele>15.2</ele>
        <time>2015-08-20T18:41:48Z</time>
      </trkpt>
      <trkpt lat="47.16792" lon="-1.63573">
        <ele>13.7</ele>
        <time>2015-08-20T18:41:54Z</time>
      </trkpt>
      <trkpt lat="47.16782" lon="-1.636">
        <ele>12.6</ele>
        <time>2015-08-20T18:42:01Z</time>
      </trkpt>
      <trkpt lat="47.16768" lon="-1.63622">
        <ele>13.1</ele>
        <time>2015-08-20T18:42:06Z</time>
      </trkpt>
      <trkpt lat="47.16759" lon="-1.63649">
        <ele>13.7</ele>
        <time>2015-08-20T18:42:11Z</time>
      </trkpt>
      <trkpt lat="47.16756" lon="-1.63676">
        <ele>13.3</ele>
        <time>2015-08-20T18:42:18Z</time>
      </trkpt>
      <trkpt lat="47.16767" lon="-1.63701">
        <ele>13.4</ele>
        <time>2015-08-20T18:42:26Z</time>
      </trkpt>
      <trkpt lat="47.16778" lon="-1.63724">
        <ele>14.1</ele>
        <time>2015-08-20T18:42:33Z</time>
      </trkpt>
      <trkpt lat="47.16798" lon="-1.63734">
        <ele>16.4</ele>
        <time>2015-08-20T18:42:38Z</time>
      </trkpt>
      <trkpt lat="47.16817" lon="-1.63743">
        <ele>17.1</ele>
        <time>2015-08-20T18:42:43Z</time>
      </trkpt>
      <trkpt lat="47.16836" lon="-1.6375">
        <ele>20.4</ele>
        <time>2015-08-20T18:42:48Z</time>
      </trkpt>
      <trkpt lat="47.16854" lon="-1.6376">
        <ele>21.3</ele>
        <time>2015-08-20T18:42:53Z</time>
      </trkpt>
      <trkpt lat="47.16877" lon="-1.63756">
        <ele>20.3</ele>
        <time>2015-08-20T18:42:57Z</time>
      </trkpt>
      <trkpt lat="47.16897" lon="-1.63762">
        <ele>20.3</ele>
        <time>2015-08-20T18:43:02Z</time>
      </trkpt>
      <trkpt lat="47.16916" lon="-1.63766">
        <ele>20.4</ele>
        <time>2015-08-20T18:43:07Z</time>
      </trkpt>
      <trkpt lat="47.16939" lon="-1.63766">
        <ele>19</ele>
        <time>2015-08-20T18:43:11Z</time>
      </trkpt>
      <trkpt lat="47.16958" lon="-1.63769">
        <ele>19.1</ele>
        <time>2015-08-20T18:43:15Z</time>
      </trkpt>
      <trkpt lat="47.16977" lon="-1.63765">
        <ele>18.3</ele>
        <time>2015-08-20T18:43:18Z</time>
      </trkpt>
      <trkpt lat="47.16998" lon="-1.63766">
        <ele>17.6</ele>
        <time>2015-08-20T18:43:24Z</time>
      </trkpt>
      <trkpt lat="47.17018" lon="-1.63764">
        <ele>17.8</ele>
        <time>2015-08-20T18:43:29Z</time>
      </trkpt>
      <trkpt lat="47.17037" lon="-1.6377">
        <ele>17.9</ele>
        <time>2015-08-20T18:43:34Z</time>
      </trkpt>
      <trkpt lat="47.17054" lon="-1.63781">
        <ele>16.6</ele>
        <time>2015-08-20T18:43:40Z</time>
      </trkpt>
      <trkpt lat="47.17071" lon="-1.63795">
        <ele>16.7</ele>
        <time>2015-08-20T18:43:45Z</time>
      </trkpt>
      <trkpt lat="47.17086" lon="-1.63813">
        <ele>17.7</ele>
        <time>2015-08-20T18:43:50Z</time>
      </trkpt>
      <trkpt lat="47.17105" lon="-1.63832">
        <ele>19.2</ele>
        <time>2015-08-20T18:43:55Z</time>
      </trkpt>
      <trkpt lat="47.17116" lon="-1.63854">
        <ele>24.5</ele>
        <time>2015-08-20T18:43:59Z</time>
      </trkpt>
      <trkpt lat="47.17128" lon="-1.63875">
        <ele>25.2</ele>
        <time>2015-08-20T18:44:04Z</time>
      </trkpt>
      <trkpt lat="47.17133" lon="-1.63907">
        <ele>25.5</ele>
        <time>2015-08-20T18:44:10Z</time>
      </trkpt>
      <trkpt lat="47.17138" lon="-1.63937">
        <ele>23.5</ele>
        <time>2015-08-20T18:44:18Z</time>
      </trkpt>
      <trkpt lat="47.17143" lon="-1.63964">
        <ele>22.6</ele>
        <time>2015-08-20T18:44:25Z</time>
      </trkpt>
      <trkpt lat="47.17146" lon="-1.63991">
        <ele>21.8</ele>
        <time>2015-08-20T18:44:31Z</time>
      </trkpt>
      <trkpt lat="47.17149" lon="-1.6402">
        <ele>21.7</ele>
        <time>2015-08-20T18:44:37Z</time>
      </trkpt>
      <trkpt lat="47.17149" lon="-1.64051">
        <ele>23.9</ele>
        <time>2015-08-20T18:44:44Z</time>
      </trkpt>
      <trkpt lat="47.17149" lon="-1.64079">
        <ele>22.8</ele>
        <time>2015-08-20T18:44:51Z</time>
      </trkpt>
      <trkpt lat="47.17147" lon="-1.64109">
        <ele>22.1</ele>
        <time>2015-08-20T18:44:58Z</time>
      </trkpt>
      <trkpt lat="47.17145" lon="-1.6414">
        <ele>21.6</ele>
        <time>2015-08-20T18:45:05Z</time>
      </trkpt>
      <trkpt lat="47.17142" lon="-1.6417">
        <ele>21.3</ele>
        <time>2015-08-20T18:45:11Z</time>
      </trkpt>
      <trkpt lat="47.17139" lon="-1.64199">
        <ele>21</ele>
        <time>2015-08-20T18:45:17Z</time>
      </trkpt>
      <trkpt lat="47.17133" lon="-1.64228">
        <ele>20.8</ele>
        <time>2015-08-20T18:45:23Z</time>
      </trkpt>
      <trkpt lat="47.1713" lon="-1.64255">
        <ele>20.7</ele>
        <time>2015-08-20T18:45:29Z</time>
      </trkpt>
      <trkpt lat="47.17126" lon="-1.64282">
        <ele>20.8</ele>
        <time>2015-08-20T18:45:34Z</time>
      </trkpt>
      <trkpt lat="47.17125" lon="-1.64311">
        <ele>20.7</ele>
        <time>2015-08-20T18:45:40Z</time>
      </trkpt>
      <trkpt lat="47.1712" lon="-1.64341">
        <ele>20.7</ele>
        <time>2015-08-20T18:45:46Z</time>
      </trkpt>
      <trkpt lat="47.17111" lon="-1.64366">
        <ele>20.7</ele>
        <time>2015-08-20T18:45:50Z</time>
      </trkpt>
      <trkpt lat="47.17104" lon="-1.64394">
        <ele>20.8</ele>
        <time>2015-08-20T18:45:56Z</time>
      </trkpt>
      <trkpt lat="47.17103" lon="-1.64422">
        <ele>20.8</ele>
        <time>2015-08-20T18:46:01Z</time>
      </trkpt>
      <trkpt lat="47.17096" lon="-1.64449">
        <ele>20.9</ele>
        <time>2015-08-20T18:46:08Z</time>
      </trkpt>
      <trkpt lat="47.17091" lon="-1.64475">
        <ele>20.8</ele>
        <time>2015-08-20T18:46:14Z</time>
      </trkpt>
      <trkpt lat="47.17092" lon="-1.64503">
        <ele>20.9</ele>
        <time>2015-08-20T18:46:19Z</time>
      </trkpt>
      <trkpt lat="47.17094" lon="-1.64531">
        <ele>21</ele>
        <time>2015-08-20T18:46:26Z</time>
      </trkpt>
      <trkpt lat="47.17093" lon="-1.64561">
        <ele>21.1</ele>
        <time>2015-08-20T18:46:35Z</time>
      </trkpt>
      <trkpt lat="47.17092" lon="-1.64591">
        <ele>21.2</ele>
        <time>2015-08-20T18:46:42Z</time>
      </trkpt>
      <trkpt lat="47.1709" lon="-1.64631">
        <ele>21.2</ele>
        <time>2015-08-20T18:46:48Z</time>
      </trkpt>
      <trkpt lat="47.17089" lon="-1.64663">
        <ele>21.2</ele>
        <time>2015-08-20T18:46:52Z</time>
      </trkpt>
      <trkpt lat="47.17089" lon="-1.64689">
        <ele>21.2</ele>
        <time>2015-08-20T18:46:57Z</time>
      </trkpt>
      <trkpt lat="47.17091" lon="-1.64717">
        <ele>21.2</ele>
        <time>2015-08-20T18:47:03Z</time>
      </trkpt>
      <trkpt lat="47.17089" lon="-1.64744">
        <ele>21.3</ele>
        <time>2015-08-20T18:47:06Z</time>
      </trkpt>
      <trkpt lat="47.17081" lon="-1.64771">
        <ele>21.3</ele>
        <time>2015-08-20T18:47:14Z</time>
      </trkpt>
      <trkpt lat="47.17083" lon="-1.64802">
        <ele>21.3</ele>
        <time>2015-08-20T18:47:21Z</time>
      </trkpt>
      <trkpt lat="47.1709" lon="-1.6483">
        <ele>21.4</ele>
        <time>2015-08-20T18:47:27Z</time>
      </trkpt>
      <trkpt lat="47.17092" lon="-1.64858">
        <ele>21.5</ele>
        <time>2015-08-20T18:47:33Z</time>
      </trkpt>
      <trkpt lat="47.17092" lon="-1.64889">
        <ele>21.5</ele>
        <time>2015-08-20T18:47:39Z</time>
      </trkpt>
      <trkpt lat="47.17096" lon="-1.6492">
        <ele>21.5</ele>
        <time>2015-08-20T18:47:44Z</time>
      </trkpt>
      <trkpt lat="47.17105" lon="-1.64947">
        <ele>21.6</ele>
        <time>2015-08-20T18:47:49Z</time>
      </trkpt>
      <trkpt lat="47.17113" lon="-1.64971">
        <ele>21.7</ele>
        <time>2015-08-20T18:47:54Z</time>
      </trkpt>
      <trkpt lat="47.17119" lon="-1.64997">
        <ele>21.8</ele>
        <time>2015-08-20T18:48:00Z</time>
      </trkpt>
      <trkpt lat="47.17122" lon="-1.65029">
        <ele>21.9</ele>
        <time>2015-08-20T18:48:07Z</time>
      </trkpt>
      <trkpt lat="47.17118" lon="-1.65058">
        <ele>22</ele>
        <time>2015-08-20T18:48:13Z</time>
      </trkpt>
      <trkpt lat="47.17116" lon="-1.65086">
        <ele>22.2</ele>
        <time>2015-08-20T18:48:20Z</time>
      </trkpt>
      <trkpt lat="47.17112" lon="-1.65118">
        <ele>22.3</ele>
        <time>2015-08-20T18:48:26Z</time>
      </trkpt>
      <trkpt lat="47.17113" lon="-1.65151">
        <ele>22.4</ele>
        <time>2015-08-20T18:48:33Z</time>
      </trkpt>
      <trkpt lat="47.17114" lon="-1.65178">
        <ele>22.5</ele>
        <time>2015-08-20T18:48:38Z</time>
      </trkpt>
      <trkpt lat="47.17117" lon="-1.65206">
        <ele>22.6</ele>
        <time>2015-08-20T18:48:45Z</time>
      </trkpt>
      <trkpt lat="47.17118" lon="-1.65233">
        <ele>22.7</ele>
        <time>2015-08-20T18:48:50Z</time>
      </trkpt>
      <trkpt lat="47.17118" lon="-1.65263">
        <ele>22.8</ele>
        <time>2015-08-20T18:48:57Z</time>
      </trkpt>
      <trkpt lat="47.1711" lon="-1.65287">
        <ele>22.9</ele>
        <time>2015-08-20T18:49:04Z</time>
      </trkpt>
      <trkpt lat="47.171" lon="-1.65313">
        <ele>23.1</ele>
        <time>2015-08-20T18:49:11Z</time>
      </trkpt>
      <trkpt lat="47.17094" lon="-1.65339">
        <ele>23.1</ele>
        <time>2015-08-20T18:49:18Z</time>
      </trkpt>
      <trkpt lat="47.17091" lon="-1.65365">
        <ele>23.1</ele>
        <time>2015-08-20T18:49:25Z</time>
      </trkpt>
      <trkpt lat="47.17091" lon="-1.65392">
        <ele>23.1</ele>
        <time>2015-08-20T18:49:31Z</time>
      </trkpt>
      <trkpt lat="47.17098" lon="-1.65421">
        <ele>23.1</ele>
        <time>2015-08-20T18:49:37Z</time>
      </trkpt>
      <trkpt lat="47.17105" lon="-1.65447">
        <ele>23</ele>
        <time>2015-08-20T18:49:43Z</time>
      </trkpt>
      <trkpt lat="47.17112" lon="-1.65472">
        <ele>23</ele>
        <time>2015-08-20T18:49:52Z</time>
      </trkpt>
      <trkpt lat="47.17114" lon="-1.65501">
        <ele>23</ele>
        <time>2015-08-20T18:49:59Z</time>
      </trkpt>
      <trkpt lat="47.17105" lon="-1.65529">
        <ele>23</ele>
        <time>2015-08-20T18:50:06Z</time>
      </trkpt>
      <trkpt lat="47.17094" lon="-1.65554">
        <ele>23</ele>
        <time>2015-08-20T18:50:14Z</time>
      </trkpt>
      <trkpt lat="47.17078" lon="-1.65574">
        <ele>23</ele>
        <time>2015-08-20T18:50:20Z</time>
      </trkpt>
      <trkpt lat="47.17065" lon="-1.65596">
        <ele>23</ele>
        <time>2015-08-20T18:50:26Z</time>
      </trkpt>
      <trkpt lat="47.17051" lon="-1.65622">
        <ele>22.9</ele>
        <time>2015-08-20T18:50:32Z</time>
      </trkpt>
      <trkpt lat="47.17037" lon="-1.65643">
        <ele>22.8</ele>
        <time>2015-08-20T18:50:37Z</time>
      </trkpt>
      <trkpt lat="47.17022" lon="-1.65664">
        <ele>22.5</ele>
        <time>2015-08-20T18:50:43Z</time>
      </trkpt>
      <trkpt lat="47.17011" lon="-1.65687">
        <ele>22.3</ele>
        <time>2015-08-20T18:50:49Z</time>
      </trkpt>
      <trkpt lat="47.16995" lon="-1.65707">
        <ele>22.1</ele>
        <time>2015-08-20T18:50:55Z</time>
      </trkpt>
      <trkpt lat="47.16981" lon="-1.65723">
        <ele>21.9</ele>
        <time>2015-08-20T18:51:01Z</time>
      </trkpt>
      <trkpt lat="47.16968" lon="-1.65747">
        <ele>21.8</ele>
        <time>2015-08-20T18:51:07Z</time>
      </trkpt>
      <trkpt lat="47.16957" lon="-1.6577">
        <ele>21.7</ele>
        <time>2015-08-20T18:51:12Z</time>
      </trkpt>
      <trkpt lat="47.16943" lon="-1.6579">
        <ele>21.5</ele>
        <time>2015-08-20T18:51:18Z</time>
      </trkpt>
      <trkpt lat="47.1693" lon="-1.65809">
        <ele>21.4</ele>
        <time>2015-08-20T18:51:23Z</time>
      </trkpt>
      <trkpt lat="47.16915" lon="-1.65829">
        <ele>21.3</ele>
        <time>2015-08-20T18:51:28Z</time>
      </trkpt>
      <trkpt lat="47.16901" lon="-1.65854">
        <ele>21.1</ele>
        <time>2015-08-20T18:51:34Z</time>
      </trkpt>
      <trkpt lat="47.16889" lon="-1.65879">
        <ele>21</ele>
        <time>2015-08-20T18:51:40Z</time>
      </trkpt>
      <trkpt lat="47.16879" lon="-1.65902">
        <ele>20.9</ele>
        <time>2015-08-20T18:51:46Z</time>
      </trkpt>
      <trkpt lat="47.16867" lon="-1.65926">
        <ele>20.8</ele>
        <time>2015-08-20T18:51:52Z</time>
      </trkpt>
      <trkpt lat="47.16858" lon="-1.65949">
        <ele>20.6</ele>
        <time>2015-08-20T18:52:01Z</time>
      </trkpt>
      <trkpt lat="47.16862" lon="-1.65918">
        <ele>20.2</ele>
        <time>2015-08-20T18:52:12Z</time>
      </trkpt>
      <trkpt lat="47.16863" lon="-1.6589">
        <ele>20.1</ele>
        <time>2015-08-20T18:52:18Z</time>
      </trkpt>
      <trkpt lat="47.16864" lon="-1.65859">
        <ele>20</ele>
        <time>2015-08-20T18:52:24Z</time>
      </trkpt>
      <trkpt lat="47.16864" lon="-1.65832">
        <ele>19.6</ele>
        <time>2015-08-20T18:52:33Z</time>
      </trkpt>
      <trkpt lat="47.16867" lon="-1.65804">
        <ele>19.2</ele>
        <time>2015-08-20T18:52:42Z</time>
      </trkpt>
      <trkpt lat="47.16856" lon="-1.65782">
        <ele>18.8</ele>
        <time>2015-08-20T18:52:55Z</time>
      </trkpt>
      <trkpt lat="47.1686" lon="-1.65753">
        <ele>18.6</ele>
        <time>2015-08-20T18:53:03Z</time>
      </trkpt>
      <trkpt lat="47.1686" lon="-1.65726">
        <ele>18.2</ele>
        <time>2015-08-20T18:53:15Z</time>
      </trkpt>
      <trkpt lat="47.16864" lon="-1.65695">
        <ele>18</ele>
        <time>2015-08-20T18:53:20Z</time>
      </trkpt>
      <trkpt lat="47.1687" lon="-1.65665">
        <ele>17.8</ele>
        <time>2015-08-20T18:53:26Z</time>
      </trkpt>
      <trkpt lat="47.16865" lon="-1.65613">
        <ele>17.5</ele>
        <time>2015-08-20T18:53:36Z</time>
      </trkpt>
      <trkpt lat="47.16863" lon="-1.65586">
        <ele>17.4</ele>
        <time>2015-08-20T18:53:40Z</time>
      </trkpt>
      <trkpt lat="47.1686" lon="-1.65554">
        <ele>17.2</ele>
        <time>2015-08-20T18:53:49Z</time>
      </trkpt>
      <trkpt lat="47.16858" lon="-1.65525">
        <ele>17.1</ele>
        <time>2015-08-20T18:53:55Z</time>
      </trkpt>
      <trkpt lat="47.16859" lon="-1.65479">
        <ele>17.2</ele>
        <time>2015-08-20T18:53:58Z</time>
      </trkpt>
      <trkpt lat="47.16859" lon="-1.65449">
        <ele>17.2</ele>
        <time>2015-08-20T18:54:00Z</time>
      </trkpt>
      <trkpt lat="47.16858" lon="-1.65417">
        <ele>17.3</ele>
        <time>2015-08-20T18:54:03Z</time>
      </trkpt>
      <trkpt lat="47.16856" lon="-1.65386">
        <ele>17.3</ele>
        <time>2015-08-20T18:54:06Z</time>
      </trkpt>
      <trkpt lat="47.16849" lon="-1.65357">
        <ele>17.2</ele>
        <time>2015-08-20T18:54:11Z</time>
      </trkpt>
      <trkpt lat="47.16844" lon="-1.65326">
        <ele>17.1</ele>
        <time>2015-08-20T18:54:16Z</time>
      </trkpt>
      <trkpt lat="47.16837" lon="-1.65296">
        <ele>17</ele>
        <time>2015-08-20T18:54:21Z</time>
      </trkpt>
      <trkpt lat="47.1683" lon="-1.6527">
        <ele>17</ele>
        <time>2015-08-20T18:54:26Z</time>
      </trkpt>
      <trkpt lat="47.16822" lon="-1.65244">
        <ele>16.9</ele>
        <time>2015-08-20T18:54:31Z</time>
      </trkpt>
      <trkpt lat="47.16819" lon="-1.65218">
        <ele>16.8</ele>
        <time>2015-08-20T18:54:35Z</time>
      </trkpt>
      <trkpt lat="47.16816" lon="-1.6519">
        <ele>16.7</ele>
        <time>2015-08-20T18:54:41Z</time>
      </trkpt>
      <trkpt lat="47.16812" lon="-1.65162">
        <ele>16.5</ele>
        <time>2015-08-20T18:54:49Z</time>
      </trkpt>
      <trkpt lat="47.1681" lon="-1.65131">
        <ele>16.4</ele>
        <time>2015-08-20T18:54:57Z</time>
      </trkpt>
      <trkpt lat="47.16809" lon="-1.65104">
        <ele>16.3</ele>
        <time>2015-08-20T18:55:03Z</time>
      </trkpt>
      <trkpt lat="47.16806" lon="-1.65074">
        <ele>16.2</ele>
        <time>2015-08-20T18:55:09Z</time>
      </trkpt>
      <trkpt lat="47.16809" lon="-1.65043">
        <ele>16.1</ele>
        <time>2015-08-20T18:55:15Z</time>
      </trkpt>
      <trkpt lat="47.1681" lon="-1.65015">
        <ele>16.1</ele>
        <time>2015-08-20T18:55:21Z</time>
      </trkpt>
      <trkpt lat="47.1681" lon="-1.64989">
        <ele>16</ele>
        <time>2015-08-20T18:55:27Z</time>
      </trkpt>
      <trkpt lat="47.16807" lon="-1.64963">
        <ele>15.9</ele>
        <time>2015-08-20T18:55:32Z</time>
      </trkpt>
      <trkpt lat="47.16806" lon="-1.64933">
        <ele>15.8</ele>
        <time>2015-08-20T18:55:39Z</time>
      </trkpt>
      <trkpt lat="47.16806" lon="-1.64905">
        <ele>15.7</ele>
        <time>2015-08-20T18:55:46Z</time>
      </trkpt>
      <trkpt lat="47.16802" lon="-1.64877">
        <ele>15.7</ele>
        <time>2015-08-20T18:55:53Z</time>
      </trkpt>
      <trkpt lat="47.16806" lon="-1.64848">
        <ele>15.6</ele>
        <time>2015-08-20T18:56:01Z</time>
      </trkpt>
      <trkpt lat="47.16801" lon="-1.64819">
        <ele>15.5</ele>
        <time>2015-08-20T18:56:05Z</time>
      </trkpt>
      <trkpt lat="47.16798" lon="-1.64785">
        <ele>15.4</ele>
        <time>2015-08-20T18:56:10Z</time>
      </trkpt>
      <trkpt lat="47.16794" lon="-1.64754">
        <ele>15.3</ele>
        <time>2015-08-20T18:56:16Z</time>
      </trkpt>
      <trkpt lat="47.16784" lon="-1.6473">
        <ele>15.3</ele>
        <time>2015-08-20T18:56:22Z</time>
      </trkpt>
      <trkpt lat="47.16778" lon="-1.64703">
        <ele>15.2</ele>
        <time>2015-08-20T18:56:29Z</time>
      </trkpt>
      <trkpt lat="47.16769" lon="-1.64678">
        <ele>15.1</ele>
        <time>2015-08-20T18:56:36Z</time>
      </trkpt>
      <trkpt lat="47.16757" lon="-1.64656">
        <ele>15</ele>
        <time>2015-08-20T18:56:44Z</time>
      </trkpt>
      <trkpt lat="47.16749" lon="-1.64628">
        <ele>14.9</ele>
        <time>2015-08-20T18:56:50Z</time>
      </trkpt>
      <trkpt lat="47.16741" lon="-1.64593">
        <ele>14.8</ele>
        <time>2015-08-20T18:56:55Z</time>
      </trkpt>
      <trkpt lat="47.16737" lon="-1.64566">
        <ele>14.8</ele>
        <time>2015-08-20T18:57:00Z</time>
      </trkpt>
      <trkpt lat="47.16734" lon="-1.64538">
        <ele>14.7</ele>
        <time>2015-08-20T18:57:05Z</time>
      </trkpt>
      <trkpt lat="47.16732" lon="-1.64509">
        <ele>14.7</ele>
        <time>2015-08-20T18:57:09Z</time>
      </trkpt>
      <trkpt lat="47.16725" lon="-1.64482">
        <ele>14.6</ele>
        <time>2015-08-20T18:57:14Z</time>
      </trkpt>
      <trkpt lat="47.16718" lon="-1.64457">
        <ele>14.5</ele>
        <time>2015-08-20T18:57:19Z</time>
      </trkpt>
      <trkpt lat="47.16705" lon="-1.64433">
        <ele>14.4</ele>
        <time>2015-08-20T18:57:24Z</time>
      </trkpt>
      <trkpt lat="47.16697" lon="-1.64408">
        <ele>14.3</ele>
        <time>2015-08-20T18:57:31Z</time>
      </trkpt>
      <trkpt lat="47.16689" lon="-1.64383">
        <ele>14.2</ele>
        <time>2015-08-20T18:57:37Z</time>
      </trkpt>
      <trkpt lat="47.1668" lon="-1.64353">
        <ele>14.1</ele>
        <time>2015-08-20T18:57:43Z</time>
      </trkpt>
      <trkpt lat="47.16672" lon="-1.64327">
        <ele>14</ele>
        <time>2015-08-20T18:57:49Z</time>
      </trkpt>
      <trkpt lat="47.1666" lon="-1.64307">
        <ele>13.9</ele>
        <time>2015-08-20T18:57:56Z</time>
      </trkpt>
      <trkpt lat="47.16645" lon="-1.64287">
        <ele>13.8</ele>
        <time>2015-08-20T18:58:05Z</time>
      </trkpt>
      <trkpt lat="47.16637" lon="-1.64262">
        <ele>13.7</ele>
        <time>2015-08-20T18:58:11Z</time>
      </trkpt>
      <trkpt lat="47.16629" lon="-1.64234">
        <ele>13.6</ele>
        <time>2015-08-20T18:58:17Z</time>
      </trkpt>
      <trkpt lat="47.16617" lon="-1.64208">
        <ele>13.6</ele>
        <time>2015-08-20T18:58:24Z</time>
      </trkpt>
      <trkpt lat="47.16601" lon="-1.64189">
        <ele>13.5</ele>
        <time>2015-08-20T18:58:32Z</time>
      </trkpt>
      <trkpt lat="47.16582" lon="-1.64191">
        <ele>13.3</ele>
        <time>2015-08-20T18:58:42Z</time>
      </trkpt>
      <trkpt lat="47.16569" lon="-1.64217">
        <ele>13.2</ele>
        <time>2015-08-20T18:58:50Z</time>
      </trkpt>
      <trkpt lat="47.16558" lon="-1.64242">
        <ele>13.1</ele>
        <time>2015-08-20T18:58:57Z</time>
      </trkpt>
      <trkpt lat="47.16543" lon="-1.64263">
        <ele>13.1</ele>
        <time>2015-08-20T18:59:04Z</time>
      </trkpt>
      <trkpt lat="47.16524" lon="-1.64274">
        <ele>13.2</ele>
        <time>2015-08-20T18:59:10Z</time>
      </trkpt>
      <trkpt lat="47.16505" lon="-1.64284">
        <ele>13.2</ele>
        <time>2015-08-20T18:59:14Z</time>
      </trkpt>
      <trkpt lat="47.16485" lon="-1.64291">
        <ele>13.2</ele>
        <time>2015-08-20T18:59:20Z</time>
      </trkpt>
      <trkpt lat="47.16466" lon="-1.64282">
        <ele>13.2</ele>
        <time>2015-08-20T18:59:27Z</time>
      </trkpt>
      <trkpt lat="47.1646" lon="-1.64257">
        <ele>13.3</ele>
        <time>2015-08-20T18:59:36Z</time>
      </trkpt>
      <trkpt lat="47.16465" lon="-1.64231">
        <ele>13.2</ele>
        <time>2015-08-20T18:59:42Z</time>
      </trkpt>
      <trkpt lat="47.16478" lon="-1.64206">
        <ele>13.1</ele>
        <time>2015-08-20T18:59:47Z</time>
      </trkpt>
      <trkpt lat="47.16491" lon="-1.64186">
        <ele>13</ele>
        <time>2015-08-20T18:59:52Z</time>
      </trkpt>
      <trkpt lat="47.16502" lon="-1.64161">
        <ele>13</ele>
        <time>2015-08-20T18:59:57Z</time>
      </trkpt>
      <trkpt lat="47.16514" lon="-1.64136">
        <ele>12.9</ele>
        <time>2015-08-20T19:00:02Z</time>
      </trkpt>
      <trkpt lat="47.1653" lon="-1.64113">
        <ele>12.9</ele>
        <time>2015-08-20T19:00:07Z</time>
      </trkpt>
      <trkpt lat="47.16543" lon="-1.64094">
        <ele>12.9</ele>
        <time>2015-08-20T19:00:12Z</time>
      </trkpt>
      <trkpt lat="47.16558" lon="-1.64072">
        <ele>12.9</ele>
        <time>2015-08-20T19:00:17Z</time>
      </trkpt>
      <trkpt lat="47.16571" lon="-1.6405">
        <ele>12.9</ele>
        <time>2015-08-20T19:00:22Z</time>
      </trkpt>
      <trkpt lat="47.1657" lon="-1.64023">
        <ele>13</ele>
        <time>2015-08-20T19:00:28Z</time>
      </trkpt>
      <trkpt lat="47.16561" lon="-1.63998">
        <ele>13</ele>
        <time>2015-08-20T19:00:34Z</time>
      </trkpt>
      <trkpt lat="47.1655" lon="-1.63974">
        <ele>12.9</ele>
        <time>2015-08-20T19:00:41Z</time>
      </trkpt>
      <trkpt lat="47.16539" lon="-1.63952">
        <ele>12.9</ele>
        <time>2015-08-20T19:00:47Z</time>
      </trkpt>
      <trkpt lat="47.16527" lon="-1.6393">
        <ele>12.7</ele>
        <time>2015-08-20T19:00:54Z</time>
      </trkpt>
      <trkpt lat="47.16517" lon="-1.639">
        <ele>12.8</ele>
        <time>2015-08-20T19:00:59Z</time>
      </trkpt>
      <trkpt lat="47.16508" lon="-1.63878">
        <ele>12.8</ele>
        <time>2015-08-20T19:01:04Z</time>
      </trkpt>
      <trkpt lat="47.16497" lon="-1.6385">
        <ele>12.7</ele>
        <time>2015-08-20T19:01:11Z</time>
      </trkpt>
      <trkpt lat="47.16485" lon="-1.63828">
        <ele>12.7</ele>
        <time>2015-08-20T19:01:17Z</time>
      </trkpt>
      <trkpt lat="47.16473" lon="-1.63803">
        <ele>12.6</ele>
        <time>2015-08-20T19:01:23Z</time>
      </trkpt>
      <trkpt lat="47.16464" lon="-1.63779">
        <ele>12.6</ele>
        <time>2015-08-20T19:01:29Z</time>
      </trkpt>
      <trkpt lat="47.16453" lon="-1.63755">
        <ele>12.6</ele>
        <time>2015-08-20T19:01:35Z</time>
      </trkpt>
      <trkpt lat="47.16444" lon="-1.63731">
        <ele>12.5</ele>
        <time>2015-08-20T19:01:42Z</time>
      </trkpt>
      <trkpt lat="47.16433" lon="-1.63704">
        <ele>12.5</ele>
        <time>2015-08-20T19:01:49Z</time>
      </trkpt>
      <trkpt lat="47.16426" lon="-1.6368">
        <ele>12.4</ele>
        <time>2015-08-20T19:01:54Z</time>
      </trkpt>
      <trkpt lat="47.16419" lon="-1.63648">
        <ele>12.5</ele>
        <time>2015-08-20T19:01:59Z</time>
      </trkpt>
      <trkpt lat="47.16414" lon="-1.63617">
        <ele>12.3</ele>
        <time>2015-08-20T19:02:05Z</time>
      </trkpt>
      <trkpt lat="47.16404" lon="-1.63589">
        <ele>12.1</ele>
        <time>2015-08-20T19:02:10Z</time>
      </trkpt>
      <trkpt lat="47.1639" lon="-1.6357">
        <ele>11.9</ele>
        <time>2015-08-20T19:02:16Z</time>
      </trkpt>
      <trkpt lat="47.16371" lon="-1.63568">
        <ele>11.6</ele>
        <time>2015-08-20T19:02:24Z</time>
      </trkpt>
      <trkpt lat="47.16351" lon="-1.63565">
        <ele>11.7</ele>
        <time>2015-08-20T19:02:31Z</time>
      </trkpt>
      <trkpt lat="47.16331" lon="-1.63559">
        <ele>11.8</ele>
        <time>2015-08-20T19:02:38Z</time>
      </trkpt>
      <trkpt lat="47.16312" lon="-1.63549">
        <ele>11.8</ele>
        <time>2015-08-20T19:02:46Z</time>
      </trkpt>
      <trkpt lat="47.16297" lon="-1.63535">
        <ele>11.8</ele>
        <time>2015-08-20T19:02:53Z</time>
      </trkpt>
      <trkpt lat="47.16282" lon="-1.63518">
        <ele>11.8</ele>
        <time>2015-08-20T19:03:00Z</time>
      </trkpt>
      <trkpt lat="47.16268" lon="-1.63495">
        <ele>11.8</ele>
        <time>2015-08-20T19:03:06Z</time>
      </trkpt>
      <trkpt lat="47.16256" lon="-1.63471">
        <ele>11.9</ele>
        <time>2015-08-20T19:03:11Z</time>
      </trkpt>
      <trkpt lat="47.16246" lon="-1.63448">
        <ele>12</ele>
        <time>2015-08-20T19:03:16Z</time>
      </trkpt>
      <trkpt lat="47.16237" lon="-1.63422">
        <ele>11.9</ele>
        <time>2015-08-20T19:03:23Z</time>
      </trkpt>
      <trkpt lat="47.16231" lon="-1.63395">
        <ele>12</ele>
        <time>2015-08-20T19:03:29Z</time>
      </trkpt>
      <trkpt lat="47.16224" lon="-1.63361">
        <ele>12</ele>
        <time>2015-08-20T19:03:33Z</time>
      </trkpt>
      <trkpt lat="47.1622" lon="-1.63332">
        <ele>12</ele>
        <time>2015-08-20T19:03:37Z</time>
      </trkpt>
      <trkpt lat="47.16212" lon="-1.63305">
        <ele>12</ele>
        <time>2015-08-20T19:03:42Z</time>
      </trkpt>
      <trkpt lat="47.16206" lon="-1.63275">
        <ele>11.9</ele>
        <time>2015-08-20T19:03:48Z</time>
      </trkpt>
      <trkpt lat="47.16198" lon="-1.63249">
        <ele>12</ele>
        <time>2015-08-20T19:03:55Z</time>
      </trkpt>
      <trkpt lat="47.16191" lon="-1.63224">
        <ele>11.9</ele>
        <time>2015-08-20T19:04:00Z</time>
      </trkpt>
      <trkpt lat="47.16186" lon="-1.63199">
        <ele>11.9</ele>
        <time>2015-08-20T19:04:06Z</time>
      </trkpt>
      <trkpt lat="47.1618" lon="-1.63173">
        <ele>11.8</ele>
        <time>2015-08-20T19:04:12Z</time>
      </trkpt>
      <trkpt lat="47.1617" lon="-1.6315">
        <ele>11.8</ele>
        <time>2015-08-20T19:04:20Z</time>
      </trkpt>
      <trkpt lat="47.16164" lon="-1.63125">
        <ele>11.8</ele>
        <time>2015-08-20T19:04:25Z</time>
      </trkpt>
      <trkpt lat="47.16158" lon="-1.63099">
        <ele>11.7</ele>
        <time>2015-08-20T19:04:29Z</time>
      </trkpt>
      <trkpt lat="47.16154" lon="-1.63073">
        <ele>11.5</ele>
        <time>2015-08-20T19:04:33Z</time>
      </trkpt>
      <trkpt lat="47.16154" lon="-1.63042">
        <ele>11.6</ele>
        <time>2015-08-20T19:04:39Z</time>
      </trkpt>
      <trkpt lat="47.16157" lon="-1.63015">
        <ele>11.5</ele>
        <time>2015-08-20T19:04:47Z</time>
      </trkpt>
      <trkpt lat="47.16167" lon="-1.62985">
        <ele>11.5</ele>
        <time>2015-08-20T19:04:53Z</time>
      </trkpt>
      <trkpt lat="47.16174" lon="-1.6296">
        <ele>11.5</ele>
        <time>2015-08-20T19:04:58Z</time>
      </trkpt>
      <trkpt lat="47.1618" lon="-1.62934">
        <ele>11.5</ele>
        <time>2015-08-20T19:05:04Z</time>
      </trkpt>
      <trkpt lat="47.16189" lon="-1.6291">
        <ele>11.7</ele>
        <time>2015-08-20T19:05:13Z</time>
      </trkpt>
      <trkpt lat="47.16203" lon="-1.62892">
        <ele>11.7</ele>
        <time>2015-08-20T19:05:21Z</time>
      </trkpt>
      <trkpt lat="47.16215" lon="-1.62866">
        <ele>11.6</ele>
        <time>2015-08-20T19:05:26Z</time>
      </trkpt>
      <trkpt lat="47.16227" lon="-1.62845">
        <ele>11.8</ele>
        <time>2015-08-20T19:05:33Z</time>
      </trkpt>
      <trkpt lat="47.16235" lon="-1.6282">
        <ele>12</ele>
        <time>2015-08-20T19:05:42Z</time>
      </trkpt>
      <trkpt lat="47.16254" lon="-1.62807">
        <ele>12</ele>
        <time>2015-08-20T19:05:51Z</time>
      </trkpt>
      <trkpt lat="47.16272" lon="-1.62789">
        <ele>12.1</ele>
        <time>2015-08-20T19:05:55Z</time>
      </trkpt>
      <trkpt lat="47.16288" lon="-1.62772">
        <ele>12.1</ele>
        <time>2015-08-20T19:05:59Z</time>
      </trkpt>
      <trkpt lat="47.16297" lon="-1.62747">
        <ele>12.3</ele>
        <time>2015-08-20T19:06:09Z</time>
      </trkpt>
      <trkpt lat="47.16289" lon="-1.6272">
        <ele>12.4</ele>
        <time>2015-08-20T19:06:20Z</time>
      </trkpt>
      <trkpt lat="47.16285" lon="-1.62693">
        <ele>12.5</ele>
        <time>2015-08-20T19:06:27Z</time>
      </trkpt>
      <trkpt lat="47.16284" lon="-1.62663">
        <ele>12.4</ele>
        <time>2015-08-20T19:06:32Z</time>
      </trkpt>
      <trkpt lat="47.16283" lon="-1.62632">
        <ele>12.4</ele>
        <time>2015-08-20T19:06:38Z</time>
      </trkpt>
      <trkpt lat="47.16284" lon="-1.62605">
        <ele>12.5</ele>
        <time>2015-08-20T19:06:44Z</time>
      </trkpt>
      <trkpt lat="47.16289" lon="-1.62576">
        <ele>12.5</ele>
        <time>2015-08-20T19:06:50Z</time>
      </trkpt>
      <trkpt lat="47.16304" lon="-1.62555">
        <ele>12.6</ele>
        <time>2015-08-20T19:06:57Z</time>
      </trkpt>
      <trkpt lat="47.16322" lon="-1.62546">
        <ele>12.7</ele>
        <time>2015-08-20T19:07:02Z</time>
      </trkpt>
      <trkpt lat="47.16342" lon="-1.6254">
        <ele>12.8</ele>
        <time>2015-08-20T19:07:08Z</time>
      </trkpt>
      <trkpt lat="47.16361" lon="-1.62541">
        <ele>12.9</ele>
        <time>2015-08-20T19:07:15Z</time>
      </trkpt>
      <trkpt lat="47.16378" lon="-1.62553">
        <ele>12.9</ele>
        <time>2015-08-20T19:07:22Z</time>
      </trkpt>
      <trkpt lat="47.16398" lon="-1.62559">
        <ele>13</ele>
        <time>2015-08-20T19:07:27Z</time>
      </trkpt>
      <trkpt lat="47.16417" lon="-1.62557">
        <ele>13</ele>
        <time>2015-08-20T19:07:31Z</time>
      </trkpt>
      <trkpt lat="47.16437" lon="-1.62551">
        <ele>13.1</ele>
        <time>2015-08-20T19:07:38Z</time>
      </trkpt>
      <trkpt lat="47.16455" lon="-1.62556">
        <ele>13.2</ele>
        <time>2015-08-20T19:07:46Z</time>
      </trkpt>
      <trkpt lat="47.16476" lon="-1.62563">
        <ele>13.3</ele>
        <time>2015-08-20T19:07:53Z</time>
      </trkpt>
      <trkpt lat="47.16494" lon="-1.62569">
        <ele>13.4</ele>
        <time>2015-08-20T19:07:58Z</time>
      </trkpt>
      <trkpt lat="47.16513" lon="-1.62571">
        <ele>13.6</ele>
        <time>2015-08-20T19:08:04Z</time>
      </trkpt>
      <trkpt lat="47.16532" lon="-1.62569">
        <ele>13.8</ele>
        <time>2015-08-20T19:08:11Z</time>
      </trkpt>
      <trkpt lat="47.1655" lon="-1.62555">
        <ele>13.9</ele>
        <time>2015-08-20T19:08:18Z</time>
      </trkpt>
      <trkpt lat="47.16568" lon="-1.62546">
        <ele>13.6</ele>
        <time>2015-08-20T19:08:23Z</time>
      </trkpt>
      <trkpt lat="47.16585" lon="-1.62529">
        <ele>13.4</ele>
        <time>2015-08-20T19:08:29Z</time>
      </trkpt>
      <trkpt lat="47.16598" lon="-1.62506">
        <ele>13.5</ele>
        <time>2015-08-20T19:08:36Z</time>
      </trkpt>
      <trkpt lat="47.16605" lon="-1.62481">
        <ele>13.5</ele>
        <time>2015-08-20T19:08:40Z</time>
      </trkpt>
      <trkpt lat="47.16617" lon="-1.62456">
        <ele>13.4</ele>
        <time>2015-08-20T19:08:46Z</time>
      </trkpt>
      <trkpt lat="47.16627" lon="-1.62433">
        <ele>13.4</ele>
        <time>2015-08-20T19:08:53Z</time>
      </trkpt>
      <trkpt lat="47.16639" lon="-1.62408">
        <ele>13.4</ele>
        <time>2015-08-20T19:09:00Z</time>
      </trkpt>
      <trkpt lat="47.1665" lon="-1.62385">
        <ele>13.5</ele>
        <time>2015-08-20T19:09:06Z</time>
      </trkpt>
      <trkpt lat="47.16664" lon="-1.62361">
        <ele>13.5</ele>
        <time>2015-08-20T19:09:11Z</time>
      </trkpt>
      <trkpt lat="47.16681" lon="-1.62345">
        <ele>13.6</ele>
        <time>2015-08-20T19:09:16Z</time>
      </trkpt>
      <trkpt lat="47.16699" lon="-1.6235">
        <ele>13.6</ele>
        <time>2015-08-20T19:09:20Z</time>
      </trkpt>
      <trkpt lat="47.16718" lon="-1.62357">
        <ele>13.7</ele>
        <time>2015-08-20T19:09:25Z</time>
      </trkpt>
      <trkpt lat="47.16723" lon="-1.62385">
        <ele>13.8</ele>
        <time>2015-08-20T19:09:33Z</time>
      </trkpt>
      <trkpt lat="47.16724" lon="-1.62413">
        <ele>14</ele>
        <time>2015-08-20T19:09:38Z</time>
      </trkpt>
      <trkpt lat="47.1673" lon="-1.62438">
        <ele>14.2</ele>
        <time>2015-08-20T19:09:44Z</time>
      </trkpt>
      <trkpt lat="47.16734" lon="-1.62468">
        <ele>14.3</ele>
        <time>2015-08-20T19:09:51Z</time>
      </trkpt>
      <trkpt lat="47.1673" lon="-1.62502">
        <ele>14.4</ele>
        <time>2015-08-20T19:09:56Z</time>
      </trkpt>
      <trkpt lat="47.16729" lon="-1.62534">
        <ele>14.5</ele>
        <time>2015-08-20T19:10:01Z</time>
      </trkpt>
      <trkpt lat="47.16726" lon="-1.62563">
        <ele>14.5</ele>
        <time>2015-08-20T19:10:06Z</time>
      </trkpt>
      <trkpt lat="47.16725" lon="-1.62591">
        <ele>14.6</ele>
        <time>2015-08-20T19:10:12Z</time>
      </trkpt>
      <trkpt lat="47.16724" lon="-1.62618">
        <ele>14.7</ele>
        <time>2015-08-20T19:10:18Z</time>
      </trkpt>
      <trkpt lat="47.16722" lon="-1.6265">
        <ele>14.8</ele>
        <time>2015-08-20T19:10:24Z</time>
      </trkpt>
      <trkpt lat="47.16723" lon="-1.62678">
        <ele>14.8</ele>
        <time>2015-08-20T19:10:29Z</time>
      </trkpt>
      <trkpt lat="47.16727" lon="-1.62707">
        <ele>14.9</ele>
        <time>2015-08-20T19:10:35Z</time>
      </trkpt>
      <trkpt lat="47.16746" lon="-1.62699">
        <ele>15</ele>
        <time>2015-08-20T19:10:47Z</time>
      </trkpt>
      <trkpt lat="47.16762" lon="-1.62685">
        <ele>15</ele>
        <time>2015-08-20T19:10:53Z</time>
      </trkpt>
    </trkseg>
  </trk>
</gpx>